createdAt,value
2022-10-13T00:01:09.240Z,47.00
2022-10-13T00:04:25.619Z,51.05
2022-10-13T00:07:41.779Z,48.75
2022-10-13T00:11:00.816Z,48.73
2022-10-13T00:14:18.385Z,45.70
2022-10-13T00:17:37.666Z,45.53
2022-10-13T00:20:56.788Z,43.28
2022-10-13T00:24:15.165Z,42.68
2022-10-13T00:27:33.128Z,45.03
2022-10-13T00:30:49.704Z,40.43
2022-10-13T00:34:08.718Z,49.53
2022-10-13T00:37:28.406Z,46.50
2022-10-13T00:44:10.394Z,45.60
2022-10-13T00:47:27.223Z,43.45
2022-10-13T00:50:49.740Z,47.10
2022-10-13T00:54:07.877Z,46.00
2022-10-13T00:57:26.045Z,43.13
2022-10-13T01:00:42.982Z,43.55
2022-10-13T01:04:00.773Z,46.30
2022-10-13T01:07:17.705Z,44.53
2022-10-13T01:10:40.864Z,43.90
2022-10-13T01:14:03.545Z,42.40
2022-10-13T01:17:27.801Z,46.90
2022-10-13T01:21:16.375Z,48.80
2022-10-13T01:24:51.847Z,44.70
2022-10-13T01:28:45.874Z,47.93
2022-10-13T01:32:08.381Z,44.88
2022-10-13T01:35:30.794Z,46.00
2022-10-13T01:38:52.618Z,50.35
2022-10-13T01:42:14.920Z,46.55
2022-10-13T01:45:36.572Z,49.25
2022-10-13T01:48:54.700Z,45.73
2022-10-13T01:52:16.719Z,46.13
2022-10-13T01:55:34.674Z,50.18
2022-10-13T01:58:53.078Z,49.23
2022-10-13T02:02:18.526Z,53.58
2022-10-13T02:05:44.997Z,48.10
2022-10-13T02:09:09.764Z,48.75
2022-10-13T02:12:32.068Z,47.40
2022-10-13T02:15:53.955Z,43.40
2022-10-13T02:19:15.228Z,50.30
2022-10-13T02:22:35.919Z,48.73
2022-10-13T02:25:56.652Z,46.08
2022-10-13T02:29:21.954Z,48.45
2022-10-13T02:32:38.686Z,48.75
2022-10-13T02:35:55.507Z,58.18
2022-10-13T02:39:13.704Z,60.55
2022-10-13T02:42:30.447Z,53.93
2022-10-13T02:45:48.474Z,59.30
2022-10-13T02:49:05.554Z,72.08
2022-10-13T02:52:34.397Z,67.30
2022-10-13T02:55:51.618Z,70.05
2022-10-13T02:59:07.906Z,47.75
2022-10-13T03:02:25.114Z,61.23
2022-10-13T03:05:41.231Z,51.50
2022-10-13T03:08:57.643Z,60.45
2022-10-13T03:12:15.061Z,64.75
2022-10-13T03:15:32.199Z,60.05
2022-10-13T03:18:51.772Z,53.08
2022-10-13T03:22:08.237Z,73.35
2022-10-13T03:25:25.413Z,74.95
2022-10-13T03:28:43.507Z,54.30
2022-10-13T03:32:07.740Z,54.05
2022-10-13T03:35:46.717Z,54.93
2022-10-13T03:39:09.333Z,54.83
2022-10-13T03:42:28.205Z,48.18
2022-10-13T03:45:44.955Z,57.83
2022-10-13T03:49:03.248Z,68.10
2022-10-13T03:52:33.124Z,70.55
2022-10-13T03:55:57.671Z,61.90
2022-10-13T03:59:17.501Z,62.30
2022-10-13T04:02:36.165Z,55.88
2022-10-13T04:05:55.733Z,67.63
2022-10-13T04:09:12.503Z,56.25
2022-10-13T04:12:33.117Z,76.98
2022-10-13T04:15:49.630Z,68.60
2022-10-13T04:19:09.646Z,59.83
2022-10-13T04:22:25.839Z,46.38
2022-10-13T04:25:44.670Z,57.60
2022-10-13T04:29:03.344Z,54.77
2022-10-13T04:32:22.025Z,50.50
2022-10-13T04:35:39.153Z,49.85
2022-10-13T04:38:55.723Z,47.13
2022-10-13T04:42:12.464Z,43.20
2022-10-13T04:45:28.663Z,53.30
2022-10-13T04:48:45.322Z,44.40
2022-10-13T04:52:01.733Z,58.58
2022-10-13T04:55:19.729Z,42.93
2022-10-13T04:58:36.279Z,54.38
2022-10-13T05:01:53.155Z,72.65
2022-10-13T05:05:10.023Z,48.73
2022-10-13T05:08:26.757Z,45.30
2022-10-13T05:11:43.364Z,44.30
2022-10-13T05:14:59.828Z,46.38
2022-10-13T05:18:15.949Z,42.28
2022-10-13T05:21:34.728Z,59.35
2022-10-13T05:24:52.583Z,59.83
2022-10-13T05:28:09.898Z,45.65
2022-10-13T05:31:29.130Z,71.85
2022-10-13T05:34:46.300Z,66.98
2022-10-13T05:38:02.442Z,59.88
2022-10-13T05:41:21.482Z,67.33
2022-10-13T05:44:38.231Z,46.43
2022-10-13T05:47:54.399Z,74.33
2022-10-13T05:51:15.790Z,53.35
2022-10-13T05:54:35.957Z,49.65
2022-10-13T05:57:55.717Z,44.80
2022-10-13T06:01:17.289Z,43.53
2022-10-13T06:04:39.679Z,54.00
2022-10-13T06:07:56.711Z,43.50
2022-10-13T06:11:15.106Z,39.08
2022-10-13T06:14:31.214Z,36.60
2022-10-13T06:17:51.256Z,39.65
2022-10-13T06:24:22.512Z,37.63
2022-10-13T06:27:39.203Z,45.80
2022-10-13T06:30:58.992Z,38.73
2022-10-13T06:34:15.348Z,46.95
2022-10-13T06:37:33.133Z,34.60
2022-10-13T06:40:49.568Z,40.25
2022-10-13T06:44:06.062Z,51.08
2022-10-13T06:47:23.174Z,60.35
2022-10-13T06:50:42.908Z,40.83
2022-10-13T06:54:00.860Z,44.30
2022-10-13T06:57:19.040Z,65.65
2022-10-13T07:00:35.070Z,44.95
2022-10-13T07:03:53.726Z,38.48
2022-10-13T07:07:10.102Z,38.90
2022-10-13T07:10:26.311Z,39.03
2022-10-13T07:13:46.239Z,35.58
2022-10-13T07:17:02.360Z,35.70
2022-10-13T07:20:21.066Z,43.48
2022-10-13T07:23:39.107Z,41.30
2022-10-13T07:26:55.505Z,40.05
2022-10-13T07:30:14.231Z,40.35
2022-10-13T07:33:30.975Z,37.50
2022-10-13T07:36:47.044Z,36.93
2022-10-13T07:40:04.298Z,38.55
2022-10-13T07:43:21.136Z,39.83
2022-10-13T07:46:37.291Z,45.85
2022-10-13T07:49:55.359Z,43.20
2022-10-13T07:53:13.726Z,45.98
2022-10-13T07:56:30.424Z,39.13
2022-10-13T07:59:49.730Z,39.68
2022-10-13T08:03:08.126Z,41.08
2022-10-13T08:06:24.649Z,40.48
2022-10-13T08:09:44.682Z,36.78
2022-10-13T08:13:01.201Z,36.38
2022-10-13T08:16:18.788Z,34.38
2022-10-13T08:19:35.747Z,36.38
2022-10-13T08:22:52.475Z,39.83
2022-10-13T08:26:09.725Z,33.80
2022-10-13T08:29:26.090Z,37.00
2022-10-13T08:32:42.644Z,38.03
2022-10-13T08:35:59.050Z,40.08
2022-10-13T08:39:16.853Z,39.48
2022-10-13T08:42:33.771Z,36.80
2022-10-13T08:45:50.924Z,37.00
2022-10-13T08:49:10.421Z,34.10
2022-10-13T08:52:32.389Z,34.83
2022-10-13T08:55:54.956Z,32.53
2022-10-13T08:59:15.293Z,31.83
2022-10-13T09:02:38.642Z,31.28
2022-10-13T09:06:04.361Z,33.93
2022-10-13T09:09:24.217Z,34.03
2022-10-13T09:12:40.282Z,31.95
2022-10-13T09:15:58.826Z,33.40
2022-10-13T09:19:35.022Z,37.00
2022-10-13T09:22:53.188Z,35.15
2022-10-13T09:26:14.882Z,32.75
2022-10-13T09:29:34.289Z,30.93
2022-10-13T09:32:50.692Z,31.30
2022-10-13T09:36:24.246Z,28.43
2022-10-13T09:39:41.880Z,30.03
2022-10-13T09:43:01.921Z,28.33
2022-10-13T09:46:28.698Z,25.58
2022-10-13T09:49:50.031Z,25.68
2022-10-13T09:53:23.508Z,24.33
2022-10-13T09:56:48.039Z,28.83
2022-10-13T10:00:13.077Z,24.98
2022-10-13T10:03:34.200Z,22.75
2022-10-13T10:06:52.975Z,22.50
2022-10-13T10:10:16.581Z,20.73
2022-10-13T10:13:35.259Z,21.63
2022-10-13T10:16:55.874Z,20.88
2022-10-13T10:20:25.155Z,21.53
2022-10-13T10:23:51.660Z,24.60
2022-10-13T10:27:13.405Z,20.88
2022-10-13T10:30:31.461Z,19.68
2022-10-13T10:33:54.236Z,22.18
2022-10-13T10:37:45.171Z,74.85
2022-10-13T10:41:08.250Z,25.90
2022-10-13T10:44:28.669Z,22.20
2022-10-13T10:47:48.711Z,20.30
2022-10-13T10:51:08.296Z,23.78
2022-10-13T10:54:35.984Z,26.18
2022-10-13T10:57:58.886Z,20.93
2022-10-13T11:01:25.554Z,20.30
2022-10-13T11:05:05.306Z,20.05
2022-10-13T11:08:38.727Z,19.90
2022-10-13T11:11:55.121Z,18.35
2022-10-13T11:15:18.506Z,22.70
2022-10-13T11:19:12.542Z,16.95
2022-10-13T11:22:31.623Z,48.15
2022-10-13T11:25:49.708Z,21.95
2022-10-13T11:29:07.358Z,18.25
2022-10-13T11:33:03.121Z,18.35
2022-10-13T11:37:01.335Z,17.70
2022-10-13T11:40:29.961Z,16.05
2022-10-13T11:43:54.469Z,18.03
2022-10-13T11:47:17.231Z,17.68
2022-10-13T11:50:43.047Z,15.88
2022-10-13T11:54:06.323Z,16.20
2022-10-13T11:57:32.970Z,20.35
2022-10-13T12:01:04.023Z,16.10
2022-10-13T12:04:30.823Z,13.98
2022-10-13T12:07:49.404Z,14.65
2022-10-13T12:11:09.326Z,13.35
2022-10-13T12:14:35.398Z,14.55
2022-10-13T12:17:54.034Z,14.70
2022-10-13T12:21:18.337Z,15.28
2022-10-13T12:24:38.030Z,29.53
2022-10-13T12:27:57.724Z,14.50
2022-10-13T12:31:22.496Z,13.68
2022-10-13T12:34:40.851Z,13.78
2022-10-13T12:37:58.432Z,12.58
2022-10-13T12:42:00.860Z,11.98
2022-10-13T12:45:32.187Z,9.80
2022-10-13T12:48:52.015Z,10.10
2022-10-13T12:52:16.903Z,12.38
2022-10-13T12:55:39.051Z,9.48
2022-10-13T12:58:55.332Z,57.70
2022-10-13T13:02:25.189Z,76.68
2022-10-13T13:05:51.636Z,13.75
2022-10-13T13:09:33.978Z,10.05
2022-10-13T13:12:52.325Z,9.70
2022-10-13T13:16:26.753Z,8.40
2022-10-13T13:19:44.815Z,12.28
2022-10-13T13:23:01.535Z,9.58
2022-10-13T13:26:22.796Z,7.65
2022-10-13T13:29:39.297Z,9.43
2022-10-13T13:32:56.869Z,11.88
2022-10-13T13:36:19.048Z,11.98
2022-10-13T13:39:36.093Z,10.00
2022-10-13T13:42:53.217Z,9.40
2022-10-13T13:46:09.426Z,9.93
2022-10-13T13:49:25.433Z,10.68
2022-10-13T13:52:42.532Z,8.90
2022-10-13T13:56:08.175Z,11.63
2022-10-13T13:59:24.682Z,10.70
2022-10-13T14:02:43.739Z,11.03
2022-10-13T14:06:03.011Z,9.30
2022-10-13T14:12:34.439Z,9.93
2022-10-13T14:15:54.865Z,11.18
2022-10-13T14:19:11.512Z,11.48
2022-10-13T14:22:27.849Z,17.73
2022-10-13T14:25:45.544Z,10.13
2022-10-13T14:29:02.530Z,9.30
2022-10-13T14:32:19.329Z,8.95
2022-10-13T14:35:35.755Z,12.20
2022-10-13T14:38:52.614Z,11.75
2022-10-13T14:42:08.716Z,10.55
2022-10-13T14:45:25.604Z,13.65
2022-10-13T14:48:45.568Z,10.45
2022-10-13T14:52:01.984Z,16.00
2022-10-13T14:55:19.366Z,12.43
2022-10-13T14:58:37.850Z,12.45
2022-10-13T15:01:55.179Z,17.50
2022-10-13T15:05:17.541Z,15.40
2022-10-13T15:08:38.755Z,44.38
2022-10-13T15:11:58.276Z,17.63
2022-10-13T15:15:16.830Z,11.05
2022-10-13T15:18:33.303Z,13.83
2022-10-13T15:21:50.458Z,10.35
2022-10-13T15:25:10.376Z,10.00
2022-10-13T15:28:26.658Z,12.28
2022-10-13T15:31:43.240Z,16.35
2022-10-13T15:35:01.253Z,12.63
2022-10-13T15:38:19.450Z,13.13
2022-10-13T15:41:35.697Z,10.68
2022-10-13T15:45:08.812Z,18.30
2022-10-13T15:48:10.937Z,14.40
2022-10-13T15:51:31.037Z,12.38
2022-10-13T15:54:47.752Z,17.18
2022-10-13T15:58:03.950Z,16.95
2022-10-13T16:01:27.221Z,18.20
2022-10-13T16:04:43.694Z,16.38
2022-10-13T16:07:59.942Z,17.03
2022-10-13T16:11:20.802Z,14.48
2022-10-13T16:14:37.415Z,14.18
2022-10-13T16:18:01.309Z,15.60
2022-10-13T16:21:24.385Z,14.63
2022-10-13T16:24:40.733Z,18.48
2022-10-13T16:28:03.130Z,26.23
2022-10-13T16:31:22.489Z,20.40
2022-10-13T16:37:57.237Z,16.83
2022-10-13T16:41:20.979Z,18.08
2022-10-13T16:44:40.465Z,15.23
2022-10-13T16:47:59.794Z,16.98
2022-10-13T16:51:22.252Z,25.03
2022-10-13T16:54:43.099Z,23.18
2022-10-13T16:57:59.638Z,27.95
2022-10-13T17:01:18.096Z,28.55
2022-10-13T17:04:39.629Z,27.13
2022-10-13T17:08:10.221Z,27.10
2022-10-13T17:11:30.723Z,25.55
2022-10-13T17:14:47.279Z,24.03
2022-10-13T17:18:05.092Z,26.55
2022-10-13T17:21:23.548Z,23.80
2022-10-13T17:24:41.974Z,23.33
2022-10-13T17:27:58.578Z,26.33
2022-10-13T17:31:18.037Z,23.53
2022-10-13T17:34:36.465Z,28.88
2022-10-13T17:37:59.009Z,28.23
2022-10-13T17:41:17.666Z,27.33
2022-10-13T17:44:39.789Z,20.78
2022-10-13T17:47:59.362Z,25.23
2022-10-13T17:51:22.013Z,25.05
2022-10-13T17:54:41.490Z,25.68
2022-10-13T17:58:00.646Z,29.53
2022-10-13T18:01:25.963Z,24.88
2022-10-13T18:04:43.770Z,28.40
2022-10-13T18:08:03.975Z,26.65
2022-10-13T18:11:24.665Z,24.03
2022-10-13T18:14:40.980Z,27.83
2022-10-13T18:17:57.352Z,25.48
2022-10-13T18:21:16.149Z,28.10
2022-10-13T18:24:34.207Z,29.80
2022-10-13T18:27:50.663Z,32.20
2022-10-13T18:31:14.241Z,39.73
2022-10-13T18:34:30.819Z,42.70
2022-10-13T18:37:50.290Z,48.75
2022-10-13T18:41:08.814Z,39.50
2022-10-13T18:44:25.869Z,34.28
2022-10-13T18:47:43.147Z,37.60
2022-10-13T18:50:59.937Z,37.90
2022-10-13T18:54:19.507Z,38.23
2022-10-13T18:57:36.004Z,38.40
2022-10-13T19:00:52.242Z,38.80
2022-10-13T19:04:13.735Z,41.58
2022-10-13T19:07:29.948Z,44.28
2022-10-13T19:10:49.731Z,44.38
2022-10-13T19:14:11.780Z,38.88
2022-10-13T19:17:28.037Z,35.83
2022-10-13T19:20:44.646Z,39.23
2022-10-13T19:24:05.223Z,39.60
2022-10-13T19:27:22.586Z,37.15
2022-10-13T19:30:40.793Z,33.83
2022-10-13T19:34:00.925Z,32.90
2022-10-13T19:37:17.643Z,38.60
2022-10-13T19:40:37.804Z,31.68
2022-10-13T19:43:53.619Z,32.93
2022-10-13T19:47:10.940Z,35.23
2022-10-13T19:50:27.184Z,37.75
2022-10-13T19:53:45.762Z,38.83
2022-10-13T19:57:02.507Z,41.80
2022-10-13T20:00:24.103Z,43.28
2022-10-13T20:03:41.066Z,38.20
2022-10-13T20:06:58.352Z,38.93
2022-10-13T20:10:15.974Z,43.95
2022-10-13T20:13:32.631Z,38.58
2022-10-13T20:16:50.626Z,40.25
2022-10-13T20:20:09.359Z,43.38
2022-10-13T20:23:25.387Z,41.85
2022-10-13T20:26:42.198Z,40.50
2022-10-13T20:29:59.117Z,38.40
2022-10-13T20:33:15.823Z,39.68
2022-10-13T20:36:38.309Z,42.15
2022-10-13T20:39:54.519Z,38.83
2022-10-13T20:43:10.698Z,42.30
2022-10-13T20:46:28.917Z,39.58
2022-10-13T20:49:45.084Z,45.93
2022-10-13T20:53:02.812Z,46.58
2022-10-13T20:56:24.101Z,41.45
2022-10-13T20:59:40.172Z,51.40
2022-10-13T21:03:01.918Z,46.50
2022-10-13T21:06:20.730Z,44.50
2022-10-13T21:09:37.020Z,44.88
2022-10-13T21:12:53.927Z,49.08
2022-10-13T21:16:16.579Z,50.63
2022-10-13T21:19:33.014Z,45.28
2022-10-13T21:22:49.232Z,46.48
2022-10-13T21:26:08.557Z,45.73
2022-10-13T21:29:25.131Z,46.00
2022-10-13T21:32:41.326Z,42.50
2022-10-13T21:35:57.473Z,44.78
2022-10-13T21:39:15.329Z,54.63
2022-10-13T21:42:34.563Z,51.80
2022-10-13T21:45:54.083Z,49.78
2022-10-13T21:49:13.039Z,48.93
2022-10-13T21:52:31.576Z,52.70
2022-10-13T21:55:47.703Z,48.17
2022-10-13T21:59:05.240Z,50.95
2022-10-13T22:02:21.485Z,56.13
2022-10-13T22:05:37.798Z,55.70
2022-10-13T22:08:58.822Z,50.40
2022-10-13T22:12:15.685Z,52.43
2022-10-13T22:15:31.801Z,51.20
2022-10-13T22:18:48.352Z,48.28
2022-10-13T22:22:04.824Z,48.63
2022-10-13T22:25:21.108Z,53.15
2022-10-13T22:28:38.522Z,47.35
2022-10-13T22:31:54.852Z,49.90
2022-10-13T22:35:11.530Z,48.68
2022-10-13T22:38:27.962Z,59.55
2022-10-13T22:41:46.128Z,54.80
2022-10-13T22:45:02.213Z,50.85
2022-10-13T22:48:21.203Z,51.20
2022-10-13T22:51:42.536Z,47.75
2022-10-13T22:54:59.017Z,55.18
2022-10-13T22:58:15.640Z,47.45
2022-10-13T23:01:33.307Z,47.90
2022-10-13T23:04:49.538Z,46.30
2022-10-13T23:08:06.805Z,49.25
2022-10-13T23:11:24.079Z,48.95
2022-10-13T23:14:40.583Z,50.08
2022-10-13T23:17:57.657Z,46.03
2022-10-13T23:21:17.094Z,47.78
2022-10-13T23:24:33.280Z,44.83
2022-10-13T23:27:49.492Z,47.98
2022-10-13T23:31:09.274Z,46.40
2022-10-13T23:34:26.222Z,47.03
2022-10-13T23:37:42.808Z,42.93
2022-10-13T23:40:59.567Z,50.60
2022-10-13T23:44:18.004Z,42.40
2022-10-13T23:47:34.490Z,46.70
2022-10-13T23:50:50.578Z,47.35
2022-10-13T23:54:08.213Z,47.73
2022-10-13T23:57:24.379Z,43.93
